createdAt,value
2023-02-14T00:00:25.724Z,100.00
2023-02-14T00:04:27.787Z,100.00
2023-02-14T00:08:29.964Z,100.00
2023-02-14T00:12:32.243Z,100.00
2023-02-14T00:16:34.349Z,100.00
2023-02-14T00:20:37.072Z,100.00
2023-02-14T00:24:39.637Z,100.00
2023-02-14T00:28:41.680Z,100.00
2023-02-14T00:32:43.774Z,100.00
2023-02-14T00:36:46.283Z,100.00
2023-02-14T00:40:51.119Z,100.00
2023-02-14T00:44:55.396Z,100.00
2023-02-14T00:48:57.556Z,100.00
2023-02-14T00:52:59.540Z,100.00
2023-02-14T00:57:01.968Z,100.00
2023-02-14T01:01:04.423Z,100.00
2023-02-14T01:05:06.555Z,100.00
2023-02-14T01:09:08.806Z,100.00
2023-02-14T01:13:11.161Z,100.00
2023-02-14T01:17:13.325Z,100.00
2023-02-14T01:21:15.748Z,100.00
2023-02-14T01:25:18.294Z,100.00
2023-02-14T01:29:21.125Z,100.00
2023-02-14T01:33:23.077Z,100.00
2023-02-14T01:37:25.060Z,100.00
2023-02-14T01:41:28.330Z,100.00
2023-02-14T01:45:32.088Z,100.00
2023-02-14T01:49:36.065Z,100.00
2023-02-14T01:53:38.449Z,100.00
2023-02-14T01:57:44.041Z,100.00
2023-02-14T02:01:47.151Z,100.00
2023-02-14T02:05:51.719Z,100.00
2023-02-14T02:09:53.694Z,100.00
2023-02-14T02:13:58.660Z,100.00
2023-02-14T02:18:24.105Z,100.00
2023-02-14T02:22:36.045Z,100.00
2023-02-14T02:26:56.810Z,100.00
2023-02-14T02:31:11.208Z,100.00
2023-02-14T02:35:31.912Z,100.00
2023-02-14T02:39:46.403Z,100.00
2023-02-14T02:44:11.465Z,100.00
2023-02-14T02:48:21.174Z,100.00
2023-02-14T02:52:46.758Z,100.00
2023-02-14T02:56:55.990Z,100.00
2023-02-14T03:00:59.963Z,100.00
2023-02-14T03:05:05.658Z,100.00
2023-02-14T03:09:30.708Z,100.00
2023-02-14T03:13:51.336Z,100.00
2023-02-14T03:18:49.542Z,100.00
2023-02-14T03:23:00.822Z,100.00
2023-02-14T03:27:06.298Z,100.00
2023-02-14T03:31:11.232Z,100.00
2023-02-14T03:35:13.617Z,100.00
2023-02-14T03:39:19.503Z,100.00
2023-02-14T03:43:30.994Z,100.00
2023-02-14T03:47:34.605Z,100.00
2023-02-14T03:51:38.169Z,100.00
2023-02-14T03:55:46.204Z,100.00
2023-02-14T03:59:48.919Z,100.00
2023-02-14T04:03:52.716Z,100.00
2023-02-14T04:07:58.643Z,100.00
2023-02-14T04:12:01.165Z,100.00
2023-02-14T04:16:03.474Z,100.00
2023-02-14T04:20:05.813Z,100.00
2023-02-14T04:24:07.956Z,100.00
2023-02-14T04:28:10.496Z,100.00
2023-02-14T04:32:14.262Z,100.00
2023-02-14T04:36:16.245Z,100.00
2023-02-14T04:40:18.316Z,100.00
2023-02-14T04:44:20.555Z,100.00
2023-02-14T04:48:22.651Z,100.00
2023-02-14T04:52:24.617Z,100.00
2023-02-14T04:56:27.342Z,100.00
2023-02-14T05:00:29.438Z,100.00
2023-02-14T05:04:31.670Z,100.00
2023-02-14T05:08:33.600Z,100.00
2023-02-14T05:12:35.522Z,100.00
2023-02-14T05:16:38.592Z,100.00
2023-02-14T05:20:40.677Z,100.00
2023-02-14T05:24:42.620Z,100.00
2023-02-14T05:28:44.619Z,100.00
2023-02-14T05:32:46.844Z,100.00
2023-02-14T05:36:48.855Z,100.00
2023-02-14T05:40:50.804Z,100.00
2023-02-14T05:44:52.836Z,100.00
2023-02-14T05:48:54.879Z,100.00
2023-02-14T05:52:56.940Z,100.00
2023-02-14T05:56:58.892Z,100.00
2023-02-14T06:01:01.413Z,100.00
2023-02-14T06:05:03.716Z,100.00
2023-02-14T06:09:05.696Z,100.00
2023-02-14T06:13:10.854Z,100.00
2023-02-14T06:17:12.773Z,100.00
2023-02-14T06:21:23.903Z,100.00
2023-02-14T06:25:25.972Z,100.00
2023-02-14T06:29:30.415Z,100.00
2023-02-14T06:33:50.885Z,100.00
2023-02-14T06:37:54.460Z,100.00
2023-02-14T06:41:56.406Z,100.00
2023-02-14T06:45:58.742Z,100.00
2023-02-14T06:50:01.643Z,100.00
2023-02-14T06:54:03.665Z,100.00
2023-02-14T06:58:05.677Z,100.00
2023-02-14T07:02:09.640Z,100.00
2023-02-14T07:06:12.028Z,100.00
2023-02-14T07:10:14.133Z,100.00
2023-02-14T07:14:16.225Z,100.00
2023-02-14T07:18:18.149Z,100.00
2023-02-14T07:22:20.112Z,100.00
2023-02-14T07:26:22.357Z,100.00
2023-02-14T07:30:25.193Z,100.00
2023-02-14T07:34:27.455Z,100.00
2023-02-14T07:38:30.616Z,100.00
2023-02-14T07:42:32.583Z,100.00
2023-02-14T07:46:35.481Z,100.00
2023-02-14T07:50:37.650Z,100.00
2023-02-14T07:54:39.742Z,100.00
2023-02-14T07:58:41.769Z,100.00
2023-02-14T08:02:44.162Z,100.00
2023-02-14T08:06:46.435Z,100.00
2023-02-14T08:10:48.439Z,100.00
2023-02-14T08:14:50.374Z,100.00
2023-02-14T08:18:52.297Z,100.00
2023-02-14T08:22:54.376Z,100.00
2023-02-14T08:26:56.468Z,100.00
2023-02-14T08:30:59.168Z,100.00
2023-02-14T08:35:01.417Z,100.00
2023-02-14T08:39:04.924Z,100.00
2023-02-14T08:43:07.560Z,100.00
2023-02-14T08:47:10.033Z,100.00
2023-02-14T08:51:14.065Z,100.00
2023-02-14T08:55:16.019Z,100.00
2023-02-14T08:59:17.991Z,100.00
2023-02-14T09:03:20.201Z,100.00
2023-02-14T09:07:22.279Z,100.00
2023-02-14T09:11:25.149Z,100.00
2023-02-14T09:15:27.103Z,100.00
2023-02-14T09:19:29.128Z,100.00
2023-02-14T09:23:31.225Z,100.00
2023-02-14T09:27:33.265Z,100.00
2023-02-14T09:31:35.341Z,100.00
2023-02-14T09:35:56.177Z,100.00
2023-02-14T09:39:58.200Z,100.00
2023-02-14T09:44:11.133Z,100.00
2023-02-14T09:48:21.740Z,100.00
2023-02-14T09:52:26.397Z,100.00
2023-02-14T09:56:45.975Z,100.00
2023-02-14T10:01:15.857Z,100.00
2023-02-14T10:05:22.146Z,100.00
2023-02-14T10:09:30.271Z,100.00
2023-02-14T10:13:35.227Z,100.00
2023-02-14T10:17:42.168Z,95.70
2023-02-14T10:21:48.039Z,93.08
2023-02-14T10:26:01.314Z,88.25
2023-02-14T10:30:12.320Z,78.21
2023-02-14T10:34:32.839Z,78.48
2023-02-14T10:38:42.073Z,66.31
2023-02-14T10:42:59.529Z,64.13
2023-02-14T10:47:01.513Z,62.76
2023-02-14T10:51:09.993Z,60.71
2023-02-14T10:55:32.357Z,54.57
2023-02-14T10:59:57.089Z,48.90
2023-02-14T11:04:04.243Z,52.21
2023-02-14T11:08:22.332Z,53.57
2023-02-14T11:12:40.939Z,51.55
2023-02-14T11:16:43.010Z,51.12
2023-02-14T11:20:58.987Z,52.76
2023-02-14T11:25:17.964Z,53.26
2023-02-14T11:29:31.061Z,53.10
2023-02-14T11:33:43.147Z,54.81
2023-02-14T11:37:55.606Z,54.83
2023-02-14T11:41:59.589Z,54.79
2023-02-14T11:46:20.261Z,50.62
2023-02-14T11:50:25.170Z,52.18
2023-02-14T11:54:30.157Z,50.19
2023-02-14T11:58:38.650Z,52.46
2023-02-14T12:02:42.382Z,52.38
2023-02-14T12:06:46.052Z,52.39
2023-02-14T12:11:00.812Z,50.65
2023-02-14T12:15:23.203Z,51.81
2023-02-14T12:19:37.756Z,49.93
2023-02-14T12:23:49.064Z,48.64
2023-02-14T12:27:54.281Z,48.31
2023-02-14T12:31:59.327Z,47.12
2023-02-14T12:36:01.790Z,49.27
2023-02-14T12:40:13.117Z,43.96
2023-02-14T12:44:21.194Z,47.34
2023-02-14T12:48:35.542Z,46.29
2023-02-14T12:52:51.459Z,44.86
2023-02-14T12:57:08.627Z,47.03
2023-02-14T13:01:38.502Z,44.36
2023-02-14T13:05:53.924Z,45.74
2023-02-14T13:10:06.685Z,45.11
2023-02-14T13:14:26.463Z,43.56
2023-02-14T13:18:28.780Z,42.71
2023-02-14T13:22:32.098Z,41.92
2023-02-14T13:26:39.144Z,43.23
2023-02-14T13:30:43.355Z,43.95
2023-02-14T13:34:47.229Z,41.44
2023-02-14T13:38:51.784Z,42.01
2023-02-14T13:42:53.921Z,41.31
2023-02-14T13:46:56.286Z,42.84
2023-02-14T13:51:00.156Z,44.48
2023-02-14T13:55:03.578Z,43.02
2023-02-14T13:59:06.627Z,43.49
2023-02-14T14:03:15.159Z,44.21
2023-02-14T14:07:22.428Z,43.63
2023-02-14T14:11:25.153Z,44.10
2023-02-14T14:15:27.878Z,44.36
2023-02-14T14:19:30.266Z,43.52
2023-02-14T14:23:35.041Z,42.06
2023-02-14T14:27:46.757Z,43.71
2023-02-14T14:31:55.881Z,42.14
2023-02-14T14:36:06.071Z,39.75
2023-02-14T14:40:23.018Z,40.34
2023-02-14T14:44:25.868Z,40.14
2023-02-14T14:48:55.384Z,39.46
2023-02-14T14:53:02.085Z,41.31
2023-02-14T14:57:07.531Z,40.92
2023-02-14T15:01:21.556Z,41.62
2023-02-14T15:05:33.399Z,42.22
2023-02-14T15:09:35.588Z,41.56
2023-02-14T15:13:50.207Z,41.06
2023-02-14T15:17:52.684Z,41.70
2023-02-14T15:21:56.150Z,42.67
2023-02-14T15:26:00.121Z,41.86
2023-02-14T15:30:09.568Z,42.63
2023-02-14T15:34:13.811Z,41.93
2023-02-14T15:38:17.583Z,42.58
2023-02-14T15:42:29.566Z,43.89
2023-02-14T15:46:38.266Z,43.33
2023-02-14T15:51:01.051Z,42.63
2023-02-14T15:55:11.802Z,43.84
2023-02-14T15:59:17.748Z,43.72
2023-02-14T16:03:21.260Z,43.25
2023-02-14T16:07:24.319Z,43.73
2023-02-14T16:11:29.144Z,43.55
2023-02-14T16:15:37.429Z,44.52
2023-02-14T16:19:45.049Z,45.09
2023-02-14T16:23:48.275Z,44.86
2023-02-14T16:27:51.495Z,44.97
2023-02-14T16:36:23.702Z,47.94
2023-02-14T16:40:27.960Z,50.15
2023-02-14T16:44:30.333Z,53.05
2023-02-14T16:48:32.491Z,56.96
2023-02-14T16:52:34.965Z,61.95
2023-02-14T16:56:39.384Z,69.11
2023-02-14T17:00:42.281Z,73.38
2023-02-14T17:04:44.961Z,75.68
2023-02-14T17:08:48.405Z,77.89
2023-02-14T17:12:51.844Z,79.07
2023-02-14T17:16:55.305Z,81.45
2023-02-14T17:20:59.438Z,84.54
2023-02-14T17:25:03.381Z,86.63
2023-02-14T17:29:06.972Z,88.10
2023-02-14T17:33:09.098Z,90.77
2023-02-14T17:37:11.143Z,94.04
2023-02-14T17:41:14.821Z,93.44
2023-02-14T17:45:17.083Z,92.78
2023-02-14T17:49:19.102Z,94.72
2023-02-14T17:53:21.225Z,96.50
2023-02-14T17:57:23.723Z,98.97
2023-02-14T18:01:27.477Z,99.26
2023-02-14T18:05:29.601Z,100.00
2023-02-14T18:09:31.801Z,100.00
2023-02-14T18:13:34.103Z,100.00
2023-02-14T18:17:36.189Z,100.00
2023-02-14T18:21:40.182Z,100.00
2023-02-14T18:25:48.811Z,100.00
2023-02-14T18:29:51.071Z,100.00
2023-02-14T18:33:53.800Z,100.00
2023-02-14T18:37:56.043Z,100.00
2023-02-14T18:42:00.087Z,100.00
2023-02-14T18:46:06.469Z,100.00
2023-02-14T18:50:08.884Z,100.00
2023-02-14T18:54:11.123Z,100.00
2023-02-14T18:58:13.643Z,100.00
2023-02-14T19:02:15.932Z,100.00
2023-02-14T19:06:18.383Z,100.00
2023-02-14T19:10:20.679Z,100.00
2023-02-14T19:14:22.732Z,100.00
2023-02-14T19:18:25.820Z,100.00
2023-02-14T19:22:28.115Z,100.00
2023-02-14T19:26:35.091Z,100.00
2023-02-14T19:30:37.827Z,100.00
2023-02-14T19:34:40.104Z,100.00
2023-02-14T19:38:43.391Z,100.00
2023-02-14T19:42:45.822Z,100.00
2023-02-14T19:46:47.915Z,100.00
2023-02-14T19:50:50.788Z,100.00
2023-02-14T19:54:53.037Z,100.00
2023-02-14T19:58:56.281Z,100.00
2023-02-14T20:03:02.284Z,100.00
2023-02-14T20:07:05.564Z,100.00
2023-02-14T20:11:07.900Z,100.00
2023-02-14T20:15:11.110Z,100.00
2023-02-14T20:19:16.908Z,100.00
2023-02-14T20:23:19.849Z,100.00
2023-02-14T20:27:23.117Z,100.00
2023-02-14T20:31:25.456Z,100.00
2023-02-14T20:35:27.962Z,100.00
2023-02-14T20:39:34.862Z,100.00
2023-02-14T20:43:37.669Z,100.00
2023-02-14T20:47:40.360Z,100.00
2023-02-14T20:51:42.745Z,100.00
2023-02-14T20:55:47.607Z,100.00
2023-02-14T20:59:49.750Z,100.00
2023-02-14T21:04:42.453Z,100.00
2023-02-14T21:08:23.286Z,100.00
2023-02-14T21:12:25.473Z,100.00
2023-02-14T21:16:28.941Z,100.00
2023-02-14T21:20:31.607Z,100.00
2023-02-14T21:24:33.872Z,100.00
2023-02-14T21:28:36.305Z,100.00
2023-02-14T21:32:38.406Z,100.00
2023-02-14T21:36:40.590Z,100.00
2023-02-14T21:40:42.871Z,100.00
2023-02-14T21:45:05.146Z,100.00
2023-02-14T21:49:25.982Z,100.00
2023-02-14T21:53:28.689Z,100.00
2023-02-14T21:57:31.515Z,100.00
2023-02-14T22:01:35.187Z,100.00
2023-02-14T22:05:37.468Z,100.00
2023-02-14T22:09:39.711Z,100.00
2023-02-14T22:13:42.301Z,100.00
2023-02-14T22:17:44.490Z,100.00
2023-02-14T22:21:46.916Z,100.00
2023-02-14T22:25:49.076Z,100.00
2023-02-14T22:29:51.209Z,100.00
2023-02-14T22:33:53.929Z,100.00
2023-02-14T22:37:56.327Z,100.00
2023-02-14T22:41:58.507Z,100.00
2023-02-14T22:46:08.340Z,100.00
2023-02-14T22:50:10.969Z,100.00
2023-02-14T22:54:14.455Z,100.00
2023-02-14T22:58:16.814Z,100.00
2023-02-14T23:02:18.898Z,100.00
2023-02-14T23:06:21.016Z,100.00
2023-02-14T23:10:23.242Z,100.00
2023-02-14T23:14:44.976Z,100.00
2023-02-14T23:19:05.930Z,100.00
2023-02-14T23:23:08.278Z,100.00
2023-02-14T23:27:12.410Z,100.00
2023-02-14T23:31:14.639Z,100.00
2023-02-14T23:35:17.005Z,100.00
2023-02-14T23:39:19.195Z,100.00
2023-02-14T23:43:21.682Z,100.00
2023-02-14T23:47:23.820Z,100.00
2023-02-14T23:51:25.943Z,100.00
2023-02-14T23:55:28.119Z,100.00
2023-02-14T23:59:30.618Z,100.00
